sensor_id;sensor_type;location;lat;lon;timestamp;pressure;altitude;pressure_sealevel;temperature;humidity
21828;BME280;11076;47.942;11.804;2024-01-06T00:04:10;92970.25;;;5.74;41.83
21828;BME280;11076;47.942;11.804;2024-01-06T00:09:13;92978.13;;;5.70;41.68
21828;BME280;11076;47.942;11.804;2024-01-06T00:14:15;92978.69;;;5.86;41.59
21828;BME280;11076;47.942;11.804;2024-01-06T00:19:18;92976.41;;;5.93;41.33
21828;BME280;11076;47.942;11.804;2024-01-06T00:24:20;92973.53;;;6.03;41.12
21828;BME280;11076;47.942;11.804;2024-01-06T00:29:23;92953.31;;;6.15;40.99
21828;BME280;11076;47.942;11.804;2024-01-06T00:34:25;92960.38;;;5.83;41.67
21828;BME280;11076;47.942;11.804;2024-01-06T00:39:28;92960.13;;;5.33;42.07
21828;BME280;11076;47.942;11.804;2024-01-06T00:44:30;92956.34;;;5.34;41.95
21828;BME280;11076;47.942;11.804;2024-01-06T00:49:32;92958.88;;;6.04;40.98
21828;BME280;11076;47.942;11.804;2024-01-06T00:54:35;92952.34;;;5.78;41.09
21828;BME280;11076;47.942;11.804;2024-01-06T00:59:37;92954.13;;;5.68;41.15
21828;BME280;11076;47.942;11.804;2024-01-06T01:04:40;92957.81;;;5.59;41.05
21828;BME280;11076;47.942;11.804;2024-01-06T01:09:42;92964.84;;;5.74;40.75
21828;BME280;11076;47.942;11.804;2024-01-06T01:14:45;92969.66;;;5.77;40.36
21828;BME280;11076;47.942;11.804;2024-01-06T01:19:47;92957.19;;;5.48;40.83
21828;BME280;11076;47.942;11.804;2024-01-06T01:24:50;92965.25;;;5.67;40.56
21828;BME280;11076;47.942;11.804;2024-01-06T01:29:52;92971.72;;;5.85;40.14
21828;BME280;11076;47.942;11.804;2024-01-06T01:34:57;92963.03;;;5.69;40.08
21828;BME280;11076;47.942;11.804;2024-01-06T01:39:59;92961.63;;;5.72;39.83
21828;BME280;11076;47.942;11.804;2024-01-06T01:45:02;92975.41;;;5.04;41.00
21828;BME280;11076;47.942;11.804;2024-01-06T01:50:05;92971.19;;;5.17;40.59
21828;BME280;11076;47.942;11.804;2024-01-06T01:55:08;92976.50;;;5.22;40.27
21828;BME280;11076;47.942;11.804;2024-01-06T02:00:11;92981.66;;;5.38;39.81
21828;BME280;11076;47.942;11.804;2024-01-06T02:05:14;92975.59;;;5.46;39.83
21828;BME280;11076;47.942;11.804;2024-01-06T02:10:17;92975.66;;;5.74;39.40
21828;BME280;11076;47.942;11.804;2024-01-06T02:15:20;92980.00;;;5.56;39.21
21828;BME280;11076;47.942;11.804;2024-01-06T02:20:24;92975.16;;;5.39;39.28
21828;BME280;11076;47.942;11.804;2024-01-06T02:25:27;92982.78;;;5.50;39.00
21828;BME280;11076;47.942;11.804;2024-01-06T02:30:31;92978.97;;;5.38;39.08
21828;BME280;11076;47.942;11.804;2024-01-06T02:35:33;92989.66;;;5.10;39.67
21828;BME280;11076;47.942;11.804;2024-01-06T02:40:36;92977.91;;;5.20;39.26
21828;BME280;11076;47.942;11.804;2024-01-06T02:45:38;92993.31;;;4.81;39.64
21828;BME280;11076;47.942;11.804;2024-01-06T02:50:40;92994.50;;;4.70;39.99
21828;BME280;11076;47.942;11.804;2024-01-06T02:55:43;92990.88;;;4.99;39.42
21828;BME280;11076;47.942;11.804;2024-01-06T03:00:45;92999.91;;;4.70;39.97
21828;BME280;11076;47.942;11.804;2024-01-06T03:05:48;92993.16;;;4.29;40.33
21828;BME280;11076;47.942;11.804;2024-01-06T03:10:51;92993.25;;;4.43;39.99
21828;BME280;11076;47.942;11.804;2024-01-06T03:15:53;93007.13;;;4.56;39.65
21828;BME280;11076;47.942;11.804;2024-01-06T03:20:56;93011.03;;;4.44;39.96
21828;BME280;11076;47.942;11.804;2024-01-06T03:26:05;93008.94;;;4.60;39.78
21828;BME280;11076;47.942;11.804;2024-01-06T03:31:08;93013.75;;;4.87;39.25
21828;BME280;11076;47.942;11.804;2024-01-06T03:36:12;93018.63;;;4.85;39.33
21828;BME280;11076;47.942;11.804;2024-01-06T03:41:15;93004.81;;;4.87;39.05
21828;BME280;11076;47.942;11.804;2024-01-06T03:46:17;93019.34;;;4.67;39.43
21828;BME280;11076;47.942;11.804;2024-01-06T03:51:20;93009.03;;;4.74;39.34
21828;BME280;11076;47.942;11.804;2024-01-06T03:56:23;93013.66;;;4.49;39.54
21828;BME280;11076;47.942;11.804;2024-01-06T04:01:25;93024.28;;;4.41;39.64
21828;BME280;11076;47.942;11.804;2024-01-06T04:06:28;93021.97;;;4.29;39.86
21828;BME280;11076;47.942;11.804;2024-01-06T04:11:30;93027.59;;;4.08;40.29
21828;BME280;11076;47.942;11.804;2024-01-06T04:16:33;93039.41;;;4.13;40.25
21828;BME280;11076;47.942;11.804;2024-01-06T04:21:35;93046.44;;;4.14;39.99
21828;BME280;11076;47.942;11.804;2024-01-06T04:26:37;93045.03;;;3.92;40.16
21828;BME280;11076;47.942;11.804;2024-01-06T04:31:41;93047.81;;;3.82;40.18
21828;BME280;11076;47.942;11.804;2024-01-06T04:36:43;93050.53;;;3.82;40.06
21828;BME280;11076;47.942;11.804;2024-01-06T04:41:46;93062.00;;;3.58;40.48
21828;BME280;11076;47.942;11.804;2024-01-06T04:46:48;93049.16;;;3.79;39.96
21828;BME280;11076;47.942;11.804;2024-01-06T04:51:51;93052.53;;;3.95;39.70
21828;BME280;11076;47.942;11.804;2024-01-06T04:56:53;93059.31;;;3.58;39.88
21828;BME280;11076;47.942;11.804;2024-01-06T05:01:57;93076.59;;;3.52;39.83
21828;BME280;11076;47.942;11.804;2024-01-06T05:07:00;93075.91;;;3.36;40.10
21828;BME280;11076;47.942;11.804;2024-01-06T05:12:02;93083.47;;;3.29;40.18
21828;BME280;11076;47.942;11.804;2024-01-06T05:17:05;93085.47;;;3.13;40.33
21828;BME280;11076;47.942;11.804;2024-01-06T05:22:07;93091.97;;;3.07;40.57
21828;BME280;11076;47.942;11.804;2024-01-06T05:27:09;93093.34;;;3.04;40.38
21828;BME280;11076;47.942;11.804;2024-01-06T05:32:13;93087.63;;;3.11;39.89
21828;BME280;11076;47.942;11.804;2024-01-06T05:37:15;93100.63;;;2.94;40.35
21828;BME280;11076;47.942;11.804;2024-01-06T05:42:18;93103.31;;;2.94;40.36
21828;BME280;11076;47.942;11.804;2024-01-06T05:47:20;93105.41;;;3.12;39.49
21828;BME280;11076;47.942;11.804;2024-01-06T05:52:23;93121.63;;;2.97;40.02
21828;BME280;11076;47.942;11.804;2024-01-06T05:57:25;93124.59;;;2.90;40.05
21828;BME280;11076;47.942;11.804;2024-01-06T06:02:28;93130.69;;;3.11;39.60
21828;BME280;11076;47.942;11.804;2024-01-06T06:07:30;93145.91;;;2.81;40.10
21828;BME280;11076;47.942;11.804;2024-01-06T06:12:33;93151.28;;;2.81;39.99
21828;BME280;11076;47.942;11.804;2024-01-06T06:17:36;93162.00;;;2.97;39.69
21828;BME280;11076;47.942;11.804;2024-01-06T06:22:38;93179.22;;;2.90;39.71
21828;BME280;11076;47.942;11.804;2024-01-06T06:27:41;93181.13;;;2.85;40.28
21828;BME280;11076;47.942;11.804;2024-01-06T06:32:43;93188.84;;;3.12;39.54
21828;BME280;11076;47.942;11.804;2024-01-06T06:37:45;93192.38;;;3.02;39.52
21828;BME280;11076;47.942;11.804;2024-01-06T06:42:48;93183.41;;;3.22;39.12
21828;BME280;11076;47.942;11.804;2024-01-06T06:47:50;93191.97;;;3.29;38.83
21828;BME280;11076;47.942;11.804;2024-01-06T06:52:53;93188.53;;;3.14;39.23
21828;BME280;11076;47.942;11.804;2024-01-06T06:57:55;93193.13;;;3.08;39.05
21828;BME280;11076;47.942;11.804;2024-01-06T07:02:57;93197.44;;;3.14;38.90
21828;BME280;11076;47.942;11.804;2024-01-06T07:08:01;93193.16;;;3.03;39.29
21828;BME280;11076;47.942;11.804;2024-01-06T07:13:03;93194.78;;;3.04;39.10
21828;BME280;11076;47.942;11.804;2024-01-06T07:18:06;93207.22;;;2.89;39.64
21828;BME280;11076;47.942;11.804;2024-01-06T07:23:09;93207.47;;;2.98;39.39
21828;BME280;11076;47.942;11.804;2024-01-06T07:28:11;93216.34;;;2.94;39.63
21828;BME280;11076;47.942;11.804;2024-01-06T07:33:13;93225.44;;;3.13;39.11
21828;BME280;11076;47.942;11.804;2024-01-06T07:38:16;93227.59;;;3.16;38.88
21828;BME280;11076;47.942;11.804;2024-01-06T07:43:18;93235.75;;;2.85;39.82
21828;BME280;11076;47.942;11.804;2024-01-06T07:48:21;93241.34;;;3.04;39.47
21828;BME280;11076;47.942;11.804;2024-01-06T07:53:24;93246.91;;;3.23;39.14
21828;BME280;11076;47.942;11.804;2024-01-06T07:58:26;93250.75;;;3.12;39.30
21828;BME280;11076;47.942;11.804;2024-01-06T08:03:30;93256.13;;;3.02;39.44
21828;BME280;11076;47.942;11.804;2024-01-06T08:08:32;93256.16;;;2.91;39.77
21828;BME280;11076;47.942;11.804;2024-01-06T08:13:35;93264.22;;;3.07;39.31
21828;BME280;11076;47.942;11.804;2024-01-06T08:18:37;93256.13;;;3.12;39.49
21828;BME280;11076;47.942;11.804;2024-01-06T08:23:40;93268.22;;;3.09;39.25
21828;BME280;11076;47.942;11.804;2024-01-06T08:28:42;93271.09;;;3.39;39.26
21828;BME280;11076;47.942;11.804;2024-01-06T08:33:44;93268.63;;;3.47;39.14
21828;BME280;11076;47.942;11.804;2024-01-06T08:38:47;93268.94;;;3.46;39.31
21828;BME280;11076;47.942;11.804;2024-01-06T08:43:49;93276.72;;;3.47;39.28
21828;BME280;11076;47.942;11.804;2024-01-06T08:48:52;93284.47;;;3.59;39.28
21828;BME280;11076;47.942;11.804;2024-01-06T08:53:54;93279.19;;;3.34;39.44
21828;BME280;11076;47.942;11.804;2024-01-06T08:58:57;93288.78;;;3.60;38.99
21828;BME280;11076;47.942;11.804;2024-01-06T09:03:59;93286.69;;;3.47;39.31
21828;BME280;11076;47.942;11.804;2024-01-06T09:09:01;93293.28;;;3.80;38.79
21828;BME280;11076;47.942;11.804;2024-01-06T09:14:04;93293.97;;;4.01;38.88
21828;BME280;11076;47.942;11.804;2024-01-06T09:19:06;93298.34;;;3.92;38.92
21828;BME280;11076;47.942;11.804;2024-01-06T09:24:09;93299.31;;;4.12;38.98
21828;BME280;11076;47.942;11.804;2024-01-06T09:29:12;93298.41;;;4.26;38.66
21828;BME280;11076;47.942;11.804;2024-01-06T09:34:14;93303.28;;;4.24;38.88
21828;BME280;11076;47.942;11.804;2024-01-06T09:39:17;93305.91;;;3.90;39.27
21828;BME280;11076;47.942;11.804;2024-01-06T09:44:19;93311.34;;;3.69;39.79
21828;BME280;11076;47.942;11.804;2024-01-06T09:49:23;93316.13;;;3.93;39.46
21828;BME280;11076;47.942;11.804;2024-01-06T09:54:30;93308.03;;;3.93;39.43
21828;BME280;11076;47.942;11.804;2024-01-06T09:59:36;93310.84;;;3.78;39.35
21828;BME280;11076;47.942;11.804;2024-01-06T10:04:40;93312.69;;;3.77;39.51
21828;BME280;11076;47.942;11.804;2024-01-06T10:09:42;93310.31;;;3.76;39.73
21828;BME280;11076;47.942;11.804;2024-01-06T10:14:45;93311.88;;;3.82;39.28
21828;BME280;11076;47.942;11.804;2024-01-06T10:19:47;93307.13;;;3.53;39.77
21828;BME280;11076;47.942;11.804;2024-01-06T10:24:50;93308.66;;;3.69;39.33
21828;BME280;11076;47.942;11.804;2024-01-06T10:29:53;93306.72;;;3.90;39.14
21828;BME280;11076;47.942;11.804;2024-01-06T10:34:55;93307.06;;;3.68;39.12
21828;BME280;11076;47.942;11.804;2024-01-06T10:40:14;93310.28;;;3.70;38.90
21828;BME280;11076;47.942;11.804;2024-01-06T10:45:18;93303.31;;;3.59;38.69
21828;BME280;11076;47.942;11.804;2024-01-06T10:50:21;93302.84;;;3.52;38.57
21828;BME280;11076;47.942;11.804;2024-01-06T10:55:25;93295.94;;;3.15;39.25
21828;BME280;11076;47.942;11.804;2024-01-06T11:00:28;93299.13;;;3.32;39.10
21828;BME280;11076;47.942;11.804;2024-01-06T11:05:32;93295.28;;;3.49;38.49
21828;BME280;11076;47.942;11.804;2024-01-06T11:10:35;93291.81;;;3.43;39.25
21828;BME280;11076;47.942;11.804;2024-01-06T11:15:47;93292.78;;;3.73;38.39
21828;BME280;11076;47.942;11.804;2024-01-06T11:26:21;93288.25;;;3.58;38.52
21828;BME280;11076;47.942;11.804;2024-01-06T11:31:30;93277.69;;;3.67;38.47
21828;BME280;11076;47.942;11.804;2024-01-06T11:36:33;93276.75;;;3.42;39.02
21828;BME280;11076;47.942;11.804;2024-01-06T11:41:48;93277.56;;;3.38;39.04
21828;BME280;11076;47.942;11.804;2024-01-06T11:46:58;93272.72;;;3.35;39.19
21828;BME280;11076;47.942;11.804;2024-01-06T11:52:01;93269.03;;;3.15;39.17
21828;BME280;11076;47.942;11.804;2024-01-06T11:57:04;93266.03;;;3.22;39.24
21828;BME280;11076;47.942;11.804;2024-01-06T12:02:11;93269.06;;;3.10;39.24
21828;BME280;11076;47.942;11.804;2024-01-06T12:07:21;93261.16;;;3.29;38.97
21828;BME280;11076;47.942;11.804;2024-01-06T12:12:26;93259.75;;;3.42;38.97
21828;BME280;11076;47.942;11.804;2024-01-06T12:17:30;93245.38;;;3.02;39.36
21828;BME280;11076;47.942;11.804;2024-01-06T12:22:33;93254.59;;;2.70;39.63
21828;BME280;11076;47.942;11.804;2024-01-06T12:27:36;93246.97;;;3.13;39.08
21828;BME280;11076;47.942;11.804;2024-01-06T12:32:38;93248.13;;;2.76;39.30
21828;BME280;11076;47.942;11.804;2024-01-06T12:37:44;93247.03;;;2.87;39.59
21828;BME280;11076;47.942;11.804;2024-01-06T12:42:49;93245.94;;;2.99;39.36
21828;BME280;11076;47.942;11.804;2024-01-06T12:47:51;93244.84;;;3.05;39.13
21828;BME280;11076;47.942;11.804;2024-01-06T12:52:54;93253.44;;;3.07;38.96
21828;BME280;11076;47.942;11.804;2024-01-06T12:57:56;93250.75;;;3.12;39.13
21828;BME280;11076;47.942;11.804;2024-01-06T13:03:03;93254.50;;;3.06;38.95
21828;BME280;11076;47.942;11.804;2024-01-06T13:08:06;93251.06;;;3.00;39.11
21828;BME280;11076;47.942;11.804;2024-01-06T13:13:09;93256.50;;;2.75;39.61
21828;BME280;11076;47.942;11.804;2024-01-06T13:18:12;93262.41;;;2.71;39.48
21828;BME280;11076;47.942;11.804;2024-01-06T13:23:15;93270.19;;;2.68;39.22
21828;BME280;11076;47.942;11.804;2024-01-06T13:28:17;93269.66;;;2.66;39.51
21828;BME280;11076;47.942;11.804;2024-01-06T13:33:20;93284.19;;;2.49;39.86
21828;BME280;11076;47.942;11.804;2024-01-06T13:38:23;93286.59;;;2.36;39.52
21828;BME280;11076;47.942;11.804;2024-01-06T13:43:25;93290.66;;;2.48;39.38
21828;BME280;11076;47.942;11.804;2024-01-06T13:48:28;93290.13;;;2.62;39.41
21828;BME280;11076;47.942;11.804;2024-01-06T13:53:31;93296.81;;;2.33;39.58
21828;BME280;11076;47.942;11.804;2024-01-06T13:58:33;93300.84;;;2.21;40.21
21828;BME280;11076;47.942;11.804;2024-01-06T14:03:37;93304.59;;;2.40;40.05
21828;BME280;11076;47.942;11.804;2024-01-06T14:08:40;93300.34;;;2.65;39.89
21828;BME280;11076;47.942;11.804;2024-01-06T14:13:43;93306.22;;;2.51;39.64
21828;BME280;11076;47.942;11.804;2024-01-06T14:18:50;93312.69;;;2.45;39.80
21828;BME280;11076;47.942;11.804;2024-01-06T14:23:53;93315.91;;;2.17;39.93
21828;BME280;11076;47.942;11.804;2024-01-06T14:28:55;93319.16;;;2.55;39.55
21828;BME280;11076;47.942;11.804;2024-01-06T14:33:58;93318.84;;;2.46;39.81
21828;BME280;11076;47.942;11.804;2024-01-06T14:39:01;93319.66;;;2.36;39.54
21828;BME280;11076;47.942;11.804;2024-01-06T14:44:06;93316.97;;;2.51;39.44
21828;BME280;11076;47.942;11.804;2024-01-06T14:49:08;93317.50;;;2.38;39.46
21828;BME280;11076;47.942;11.804;2024-01-06T14:54:11;93321.81;;;2.34;40.01
21828;BME280;11076;47.942;11.804;2024-01-06T14:59:13;93333.06;;;2.10;40.27
21828;BME280;11076;47.942;11.804;2024-01-06T15:04:18;93327.19;;;2.19;40.09
21828;BME280;11076;47.942;11.804;2024-01-06T15:09:23;93332.56;;;2.24;39.76
21828;BME280;11076;47.942;11.804;2024-01-06T15:14:27;93330.97;;;2.23;39.88
21828;BME280;11076;47.942;11.804;2024-01-06T15:19:30;93335.78;;;2.36;39.64
21828;BME280;11076;47.942;11.804;2024-01-06T15:24:33;93339.28;;;2.31;39.48
21828;BME280;11076;47.942;11.804;2024-01-06T15:29:36;93335.28;;;2.39;39.39
21828;BME280;11076;47.942;11.804;2024-01-06T15:34:46;93336.38;;;2.64;39.10
21828;BME280;11076;47.942;11.804;2024-01-06T15:39:48;93339.34;;;2.73;39.01
21828;BME280;11076;47.942;11.804;2024-01-06T15:44:50;93338.22;;;2.38;39.57
21828;BME280;11076;47.942;11.804;2024-01-06T15:49:53;93348.47;;;2.71;38.82
21828;BME280;11076;47.942;11.804;2024-01-06T15:54:56;93350.84;;;2.42;39.23
21828;BME280;11076;47.942;11.804;2024-01-06T15:59:58;93358.16;;;2.78;38.70
21828;BME280;11076;47.942;11.804;2024-01-06T16:05:01;93364.38;;;2.78;38.84
21828;BME280;11076;47.942;11.804;2024-01-06T16:10:04;93359.50;;;2.55;39.12
21828;BME280;11076;47.942;11.804;2024-01-06T16:15:06;93363.78;;;2.56;38.97
21828;BME280;11076;47.942;11.804;2024-01-06T16:20:09;93356.78;;;2.29;39.39
21828;BME280;11076;47.942;11.804;2024-01-06T16:25:13;93359.13;;;2.10;40.03
21828;BME280;11076;47.942;11.804;2024-01-06T16:30:15;93361.00;;;1.99;40.01
21828;BME280;11076;47.942;11.804;2024-01-06T16:35:18;93363.44;;;2.06;40.03
21828;BME280;11076;47.942;11.804;2024-01-06T16:40:21;93368.56;;;2.12;40.04
21828;BME280;11076;47.942;11.804;2024-01-06T16:45:23;93358.88;;;2.11;39.95
21828;BME280;11076;47.942;11.804;2024-01-06T16:50:25;93361.09;;;2.35;39.77
21828;BME280;11076;47.942;11.804;2024-01-06T16:55:28;93351.88;;;2.05;39.79
21828;BME280;11076;47.942;11.804;2024-01-06T17:00:31;93360.69;;;1.90;40.42
21828;BME280;11076;47.942;11.804;2024-01-06T17:05:33;93355.69;;;2.15;39.55
21828;BME280;11076;47.942;11.804;2024-01-06T17:10:36;93359.16;;;2.15;39.69
21828;BME280;11076;47.942;11.804;2024-01-06T17:15:38;93362.56;;;1.80;40.42
21828;BME280;11076;47.942;11.804;2024-01-06T17:20:41;93364.38;;;1.16;41.88
21828;BME280;11076;47.942;11.804;2024-01-06T17:25:44;93361.44;;;1.23;41.57
21828;BME280;11076;47.942;11.804;2024-01-06T17:30:46;93363.88;;;1.24;41.89
21828;BME280;11076;47.942;11.804;2024-01-06T17:35:48;93372.31;;;0.96;42.08
21828;BME280;11076;47.942;11.804;2024-01-06T17:40:51;93374.22;;;1.00;42.21
21828;BME280;11076;47.942;11.804;2024-01-06T17:45:53;93382.06;;;0.74;42.91
21828;BME280;11076;47.942;11.804;2024-01-06T17:50:56;93376.75;;;1.22;41.91
21828;BME280;11076;47.942;11.804;2024-01-06T17:55:58;93378.47;;;1.39;41.41
21828;BME280;11076;47.942;11.804;2024-01-06T18:01:01;93385.44;;;1.29;41.79
21828;BME280;11076;47.942;11.804;2024-01-06T18:06:03;93377.84;;;1.26;41.75
21828;BME280;11076;47.942;11.804;2024-01-06T18:11:06;93385.34;;;1.19;42.06
21828;BME280;11076;47.942;11.804;2024-01-06T18:16:11;93381.28;;;1.17;41.66
21828;BME280;11076;47.942;11.804;2024-01-06T18:21:14;93382.25;;;1.38;41.77
21828;BME280;11076;47.942;11.804;2024-01-06T18:26:16;93382.88;;;1.55;41.22
21828;BME280;11076;47.942;11.804;2024-01-06T18:31:21;93393.06;;;1.53;41.38
21828;BME280;11076;47.942;11.804;2024-01-06T18:36:27;93384.13;;;1.37;41.54
21828;BME280;11076;47.942;11.804;2024-01-06T18:41:29;93384.13;;;1.42;41.82
21828;BME280;11076;47.942;11.804;2024-01-06T18:46:31;93377.44;;;1.40;41.77
21828;BME280;11076;47.942;11.804;2024-01-06T18:51:35;93375.03;;;1.48;41.38
21828;BME280;11076;47.942;11.804;2024-01-06T18:56:40;93378.56;;;1.49;41.17
21828;BME280;11076;47.942;11.804;2024-01-06T19:01:43;93387.97;;;1.57;41.35
21828;BME280;11076;47.942;11.804;2024-01-06T19:06:46;93377.13;;;1.36;41.52
21828;BME280;11076;47.942;11.804;2024-01-06T19:11:48;93370.53;;;1.11;42.16
21828;BME280;11076;47.942;11.804;2024-01-06T19:16:51;93380.19;;;1.55;41.14
21828;BME280;11076;47.942;11.804;2024-01-06T19:21:53;93381.50;;;1.47;41.22
21828;BME280;11076;47.942;11.804;2024-01-06T19:26:55;93379.56;;;1.43;41.69
21828;BME280;11076;47.942;11.804;2024-01-06T19:31:58;93380.13;;;1.45;41.46
21828;BME280;11076;47.942;11.804;2024-01-06T19:37:00;93377.94;;;1.37;41.83
21828;BME280;11076;47.942;11.804;2024-01-06T19:42:04;93388.16;;;1.40;41.51
21828;BME280;11076;47.942;11.804;2024-01-06T19:47:08;93382.88;;;1.55;41.35
21828;BME280;11076;47.942;11.804;2024-01-06T19:52:10;93385.50;;;1.45;41.64
21828;BME280;11076;47.942;11.804;2024-01-06T19:57:12;93380.84;;;1.30;41.80
21828;BME280;11076;47.942;11.804;2024-01-06T20:02:18;93377.31;;;1.24;41.75
21828;BME280;11076;47.942;11.804;2024-01-06T20:07:21;93380.00;;;1.24;41.84
21828;BME280;11076;47.942;11.804;2024-01-06T20:12:30;93376.06;;;1.37;41.61
21828;BME280;11076;47.942;11.804;2024-01-06T20:17:33;93381.25;;;1.49;41.29
21828;BME280;11076;47.942;11.804;2024-01-06T20:22:35;93378.78;;;1.42;41.79
21828;BME280;11076;47.942;11.804;2024-01-06T20:27:38;93377.38;;;1.29;41.89
21828;BME280;11076;47.942;11.804;2024-01-06T20:32:40;93369.56;;;0.85;42.81
21828;BME280;11076;47.942;11.804;2024-01-06T20:37:43;93366.63;;;1.29;41.94
21828;BME280;11076;47.942;11.804;2024-01-06T20:42:45;93371.94;;;1.24;42.15
21828;BME280;11076;47.942;11.804;2024-01-06T20:47:48;93361.41;;;1.12;42.16
21828;BME280;11076;47.942;11.804;2024-01-06T20:52:51;93366.56;;;1.19;41.69
21828;BME280;11076;47.942;11.804;2024-01-06T20:57:53;93352.13;;;1.30;41.93
21828;BME280;11076;47.942;11.804;2024-01-06T21:02:55;93354.44;;;1.17;41.80
21828;BME280;11076;47.942;11.804;2024-01-06T21:07:58;93352.72;;;1.38;41.47
21828;BME280;11076;47.942;11.804;2024-01-06T21:13:00;93348.06;;;1.28;41.94
21828;BME280;11076;47.942;11.804;2024-01-06T21:18:03;93348.03;;;1.18;41.77
21828;BME280;11076;47.942;11.804;2024-01-06T21:23:05;93342.00;;;1.43;41.71
21828;BME280;11076;47.942;11.804;2024-01-06T21:28:08;93352.09;;;1.25;42.08
21828;BME280;11076;47.942;11.804;2024-01-06T21:33:10;93346.44;;;1.27;41.74
21828;BME280;11076;47.942;11.804;2024-01-06T21:38:12;93337.59;;;1.26;41.99
21828;BME280;11076;47.942;11.804;2024-01-06T21:43:15;93349.63;;;0.76;42.90
21828;BME280;11076;47.942;11.804;2024-01-06T21:48:17;93348.13;;;0.90;42.49
21828;BME280;11076;47.942;11.804;2024-01-06T21:53:20;93352.75;;;1.00;42.48
21828;BME280;11076;47.942;11.804;2024-01-06T21:58:23;93340.78;;;1.18;42.19
21828;BME280;11076;47.942;11.804;2024-01-06T22:03:25;93348.28;;;1.16;42.11
21828;BME280;11076;47.942;11.804;2024-01-06T22:08:27;93355.28;;;1.22;42.12
21828;BME280;11076;47.942;11.804;2024-01-06T22:13:30;93348.78;;;1.08;42.22
21828;BME280;11076;47.942;11.804;2024-01-06T22:18:33;93349.75;;;0.91;42.42
21828;BME280;11076;47.942;11.804;2024-01-06T22:23:35;93345.78;;;1.04;42.25
21828;BME280;11076;47.942;11.804;2024-01-06T22:28:37;93353.59;;;1.06;42.23
21828;BME280;11076;47.942;11.804;2024-01-06T22:33:40;93349.75;;;0.91;42.45
21828;BME280;11076;47.942;11.804;2024-01-06T22:38:42;93347.31;;;0.90;42.82
21828;BME280;11076;47.942;11.804;2024-01-06T22:43:45;93349.81;;;1.02;42.31
21828;BME280;11076;47.942;11.804;2024-01-06T22:48:47;93343.09;;;0.99;42.30
21828;BME280;11076;47.942;11.804;2024-01-06T22:53:49;93340.91;;;0.96;42.45
21828;BME280;11076;47.942;11.804;2024-01-06T22:58:52;93343.44;;;0.70;42.97
21828;BME280;11076;47.942;11.804;2024-01-06T23:03:54;93343.19;;;0.72;43.02
21828;BME280;11076;47.942;11.804;2024-01-06T23:08:57;93337.56;;;0.73;42.92
21828;BME280;11076;47.942;11.804;2024-01-06T23:13:59;93343.41;;;0.65;43.22
21828;BME280;11076;47.942;11.804;2024-01-06T23:19:02;93345.91;;;0.82;42.78
21828;BME280;11076;47.942;11.804;2024-01-06T23:24:05;93340.63;;;0.92;42.50
21828;BME280;11076;47.942;11.804;2024-01-06T23:29:07;93345.59;;;0.73;42.77
21828;BME280;11076;47.942;11.804;2024-01-06T23:34:10;93344.50;;;0.69;43.07
21828;BME280;11076;47.942;11.804;2024-01-06T23:39:19;93346.16;;;0.76;42.83
21828;BME280;11076;47.942;11.804;2024-01-06T23:44:21;93357.56;;;0.28;43.99
21828;BME280;11076;47.942;11.804;2024-01-06T23:49:24;93355.75;;;0.39;43.81
21828;BME280;11076;47.942;11.804;2024-01-06T23:54:26;93354.97;;;0.39;43.63
21828;BME280;11076;47.942;11.804;2024-01-06T23:59:28;93358.19;;;0.41;43.69
